Time;durP1;ratioP1;P1;durP2;ratioP2;P2;SDS_P1;SDS_P2;PMS_P1;PMS_P2;Temp;Humidity;BMP_temperature;BMP_pressure;BME280_temperature;BME280_humidity;BME280_pressure;Samples;Min_cycle;Max_cycle;Signal;HPM_P1;HPM_P2
2023/08/29 00:00:58;;;;;;;4.75;2.97;;;12.30;99.90;;;;;;5063408;28;20404;-87
2023/08/29 00:03:30;;;;;;;5.03;2.88;;;12.10;99.90;;;;;;5079458;28;20063;-87
2023/08/29 00:06:04;;;;;;;4.28;2.42;;;12.20;99.90;;;;;;5065320;28;20036;-87
2023/08/29 00:08:34;;;;;;;5.53;2.85;;;12.20;99.90;;;;;;5096463;28;20032;-88
2023/08/29 00:11:04;;;;;;;4.57;2.65;;;12.10;99.90;;;;;;5112479;28;20056;-87
2023/08/29 00:13:31;;;;;;;6.50;2.80;;;12.20;99.90;;;;;;5080156;28;20821;-87
2023/08/29 00:15:58;;;;;;;5.70;2.92;;;12.10;99.90;;;;;;5079974;28;20132;-87
2023/08/29 00:18:25;;;;;;;5.50;3.00;;;12.10;99.90;;;;;;5062950;28;20055;-87
2023/08/29 00:20:52;;;;;;;5.30;3.03;;;12.10;99.90;;;;;;5063205;28;20119;-88
2023/08/29 00:23:19;;;;;;;6.20;3.00;;;12.10;99.90;;;;;;5095740;28;20055;-88
2023/08/29 00:25:48;;;;;;;6.43;3.42;;;12.10;99.90;;;;;;5063258;28;20036;-87
2023/08/29 00:28:15;;;;;;;5.55;3.00;;;12.10;99.90;;;;;;5079340;28;20504;-87
2023/08/29 00:30:42;;;;;;;8.23;3.60;;;12.00;99.90;;;;;;5078483;28;20040;-88
2023/08/29 00:33:09;;;;;;;4.45;2.80;;;12.00;99.90;;;;;;5095993;28;20093;-87
2023/08/29 00:35:36;;;;;;;6.13;2.97;;;12.00;99.90;;;;;;5063058;28;20431;-88
2023/08/29 00:38:03;;;;;;;5.18;3.17;;;11.90;99.90;;;;;;5095896;28;20036;-87
2023/08/29 00:40:31;;;;;;;5.45;3.13;;;11.90;99.90;;;;;;5095614;28;20040;-88
2023/08/29 00:42:59;;;;;;;7.15;3.28;;;11.90;99.90;;;;;;5096133;28;20109;-88
2023/08/29 00:45:35;;;;;;;7.85;3.50;;;11.90;99.90;;;;;;5095738;28;20126;-88
2023/08/29 00:48:02;;;;;;;4.32;2.85;;;11.90;99.90;;;;;;5095635;28;20047;-87
2023/08/29 00:50:30;;;;;;;7.80;3.20;;;11.80;99.90;;;;;;5108595;28;20043;-87
2023/08/29 00:53:01;;;;;;;5.43;3.05;;;11.90;99.90;;;;;;5115617;28;20040;-87
2023/08/29 00:55:29;;;;;;;7.68;3.03;;;11.80;99.90;;;;;;5116023;28;20046;-87
2023/08/29 00:57:56;;;;;;;5.43;2.90;;;11.80;99.90;;;;;;5082369;28;20039;-87
2023/08/29 01:00:24;;;;;;;5.28;3.30;;;11.80;99.90;;;;;;5089486;28;20035;-88
2023/08/29 01:02:51;;;;;;;6.00;3.17;;;11.70;99.90;;;;;;5095220;28;20043;-87
2023/08/29 01:05:20;;;;;;;9.75;3.75;;;11.70;99.90;;;;;;5111909;28;20554;-88
2023/08/29 01:07:52;;;;;;;10.25;3.60;;;11.70;99.90;;;;;;5099361;28;20085;-87
2023/08/29 01:10:28;;;;;;;8.63;3.50;;;11.70;99.90;;;;;;5115031;28;20447;-87
2023/08/29 01:13:07;;;;;;;5.18;3.40;;;11.70;99.90;;;;;;5116011;28;20458;-88
2023/08/29 01:15:35;;;;;;;5.45;3.53;;;11.60;99.90;;;;;;5115254;28;20040;-88
2023/08/29 01:18:07;;;;;;;5.82;3.42;;;11.60;99.90;;;;;;5115258;28;20093;-89
2023/08/29 01:20:36;;;;;;;5.88;3.30;;;11.60;99.90;;;;;;5115295;28;20032;-88
2023/08/29 01:23:10;;;;;;;6.50;3.97;;;11.60;99.90;;;;;;5115846;28;20044;-88
2023/08/29 01:26:13;;;;;;;5.40;3.30;;;11.60;99.90;;;;;;5114944;28;20476;-88
2023/08/29 01:28:42;;;;;;;7.25;3.90;;;11.60;99.90;;;;;;5109948;28;20051;-88
2023/08/29 01:31:10;;;;;;;5.75;3.30;;;11.50;99.90;;;;;;5110388;28;20488;-88
2023/08/29 01:33:38;;;;;;;7.22;3.58;;;11.50;99.90;;;;;;5078711;28;20551;-89
2023/08/29 01:36:05;;;;;;;5.70;3.28;;;11.50;99.90;;;;;;5094716;28;20377;-88
2023/08/29 01:38:34;;;;;;;6.80;3.50;;;11.50;99.90;;;;;;5094896;28;20042;-88
2023/08/29 01:41:00;;;;;;;6.75;3.78;;;10.60;99.90;;;;;;5078394;28;20044;-88
2023/08/29 01:43:27;;;;;;;7.72;3.45;;;11.50;99.90;;;;;;5078168;28;20040;-88
2023/08/29 01:45:54;;;;;;;6.22;3.92;;;11.40;99.90;;;;;;5094636;28;20561;-88
2023/08/29 01:48:21;;;;;;;9.15;3.35;;;11.40;99.90;;;;;;5094598;28;20042;-88
2023/08/29 01:50:48;;;;;;;6.43;3.50;;;11.50;99.90;;;;;;5077948;28;20036;-87
2023/08/29 01:53:15;;;;;;;4.88;3.30;;;11.40;99.90;;;;;;5094459;28;20127;-88
2023/08/29 01:55:44;;;;;;;7.93;3.35;;;11.40;99.90;;;;;;5077751;28;20028;-88
2023/08/29 01:58:12;;;;;;;7.70;3.13;;;11.40;99.90;;;;;;5095709;28;20047;-88
2023/08/29 02:00:39;;;;;;;7.60;3.55;;;11.30;99.90;;;;;;5114448;28;20082;-88
2023/08/29 02:03:06;;;;;;;9.45;3.60;;;11.30;99.90;;;;;;5114874;28;20031;-88
2023/08/29 02:05:33;;;;;;;6.75;3.70;;;11.30;99.90;;;;;;5114495;28;20051;-88
2023/08/29 02:08:00;;;;;;;5.90;3.60;;;11.30;99.90;;;;;;5098415;28;20047;-88
2023/08/29 02:10:27;;;;;;;8.30;3.40;;;11.30;99.90;;;;;;5081554;28;20905;-88
2023/08/29 02:12:53;;;;;;;6.15;3.42;;;11.30;99.90;;;;;;5114342;28;20503;-88
2023/08/29 02:15:20;;;;;;;7.88;3.53;;;11.30;99.90;;;;;;5097996;28;20040;-89
2023/08/29 02:17:47;;;;;;;8.20;3.13;;;11.20;99.90;;;;;;5097304;28;20050;-89
2023/08/29 02:20:14;;;;;;;5.93;3.40;;;11.20;99.90;;;;;;5097791;28;20039;-89
2023/08/29 02:22:40;;;;;;;5.55;3.40;;;11.20;99.90;;;;;;5097586;28;20032;-89
2023/08/29 02:25:07;;;;;;;6.68;3.00;;;11.20;99.90;;;;;;5114558;28;20088;-88
2023/08/29 02:27:34;;;;;;;5.05;3.17;;;11.20;99.90;;;;;;5097450;28;20044;-89
2023/08/29 02:30:03;;;;;;;6.72;3.65;;;11.20;99.90;;;;;;5097239;28;20043;-89
2023/08/29 02:32:31;;;;;;;6.68;3.90;;;11.20;99.90;;;;;;5097944;28;20086;-88
2023/08/29 02:34:58;;;;;;;7.07;3.40;;;11.20;99.90;;;;;;5097758;28;20043;-89
2023/08/29 02:37:24;;;;;;;4.80;3.20;;;11.20;99.90;;;;;;5113854;28;20526;-89
2023/08/29 02:39:51;;;;;;;5.72;3.35;;;11.20;99.90;;;;;;5096253;28;20477;-89
2023/08/29 02:42:18;;;;;;;7.75;3.67;;;11.10;99.90;;;;;;5094616;28;20047;-89
2023/08/29 02:44:45;;;;;;;8.90;3.30;;;11.10;99.90;;;;;;5077611;28;20040;-89
2023/08/29 02:47:12;;;;;;;6.25;3.50;;;11.10;99.90;;;;;;5077826;28;20044;-89
2023/08/29 02:49:38;;;;;;;6.18;3.58;;;11.10;99.90;;;;;;5093755;28;20040;-89
2023/08/29 02:52:05;;;;;;;8.00;3.40;;;11.10;99.90;;;;;;5078200;28;20040;-88
2023/08/29 02:54:32;;;;;;;6.25;3.75;;;11.10;99.90;;;;;;5098356;28;20077;-89
2023/08/29 02:56:59;;;;;;;6.82;3.67;;;11.10;99.90;;;;;;5097598;28;20079;-89
2023/08/29 02:59:27;;;;;;;5.63;3.40;;;11.10;99.90;;;;;;5097912;28;20122;-89
2023/08/29 03:01:54;;;;;;;5.35;2.97;;;11.00;99.90;;;;;;5092976;28;20086;-88
2023/08/29 03:04:21;;;;;;;6.10;3.38;;;11.00;99.90;;;;;;5118611;28;20120;-89
2023/08/29 03:06:47;;;;;;;6.97;3.33;;;11.00;99.90;;;;;;5101375;28;20101;-89
2023/08/29 03:09:14;;;;;;;6.93;3.50;;;11.00;99.90;;;;;;5085072;28;20104;-88
2023/08/29 03:11:41;;;;;;;5.82;3.33;;;11.00;99.90;;;;;;5117564;28;20087;-88
2023/08/29 03:14:08;;;;;;;5.30;3.55;;;11.00;99.90;;;;;;5091813;28;20036;-89
2023/08/29 03:16:35;;;;;;;6.07;3.35;;;10.90;99.90;;;;;;5081025;28;20044;-89
2023/08/29 03:19:02;;;;;;;5.65;3.38;;;11.00;99.90;;;;;;5097328;28;20036;-90
2023/08/29 03:21:29;;;;;;;6.10;3.20;;;10.90;99.90;;;;;;5097281;28;20442;-89
2023/08/29 03:23:56;;;;;;;8.13;3.20;;;10.90;99.90;;;;;;5097173;28;20036;-89
2023/08/29 03:26:23;;;;;;;5.93;3.13;;;10.90;99.90;;;;;;5081210;28;20047;-89
2023/08/29 03:28:49;;;;;;;5.43;3.20;;;10.90;99.90;;;;;;5097066;28;20040;-89
2023/08/29 03:31:17;;;;;;;7.45;3.17;;;10.80;99.90;;;;;;5097599;28;20122;-89
2023/08/29 03:33:44;;;;;;;7.05;3.00;;;10.80;99.90;;;;;;5080399;28;20101;-88
2023/08/29 03:36:11;;;;;;;4.90;3.00;;;10.80;99.90;;;;;;5097351;28;20083;-89
2023/08/29 03:38:40;;;;;;;6.80;3.22;;;10.80;99.90;;;;;;5097249;28;20068;-89
2023/08/29 03:41:07;;;;;;;5.18;3.33;;;10.80;99.90;;;;;;5080605;28;20485;-89
2023/08/29 03:43:35;;;;;;;4.95;2.90;;;10.80;99.90;;;;;;5097182;28;20036;-89
2023/08/29 03:46:07;;;;;;;4.88;3.03;;;10.80;99.90;;;;;;5096942;28;20078;-89
2023/08/29 03:48:35;;;;;;;8.07;3.33;;;10.80;99.90;;;;;;5096859;28;20043;-89
2023/08/29 03:51:11;;;;;;;5.80;3.17;;;10.40;99.90;;;;;;5096975;28;20058;-89
2023/08/29 03:53:38;;;;;;;5.78;3.05;;;10.70;99.90;;;;;;5096907;28;20137;-89
2023/08/29 03:56:06;;;;;;;6.95;3.22;;;10.70;99.90;;;;;;5079949;28;20090;-89
2023/08/29 03:58:34;;;;;;;4.75;3.10;;;10.70;99.90;;;;;;5096800;28;20036;-88
2023/08/29 04:01:03;;;;;;;5.00;2.92;;;10.70;99.90;;;;;;5096316;28;20100;-88
2023/08/29 04:03:30;;;;;;;6.50;3.08;;;10.60;99.90;;;;;;5096601;28;20035;-89
2023/08/29 04:05:57;;;;;;;5.38;3.40;;;10.70;99.90;;;;;;5115149;28;20031;-89
2023/08/29 04:08:24;;;;;;;5.93;3.33;;;10.60;99.90;;;;;;5116704;28;20096;-89
2023/08/29 04:10:51;;;;;;;8.20;3.00;;;10.60;99.90;;;;;;5099659;28;20059;-89
2023/08/29 04:13:18;;;;;;;7.22;2.88;;;10.60;99.90;;;;;;5117168;28;20040;-88
2023/08/29 04:15:45;;;;;;;6.88;3.28;;;10.60;99.90;;;;;;5100243;28;20075;-89
2023/08/29 04:18:12;;;;;;;5.35;3.05;;;10.70;99.90;;;;;;5116441;28;20403;-89
2023/08/29 04:20:39;;;;;;;6.60;2.92;;;10.60;99.90;;;;;;5116901;28;20579;-89
2023/08/29 04:23:07;;;;;;;5.35;3.10;;;10.70;99.90;;;;;;5115937;28;20127;-88
2023/08/29 04:25:36;;;;;;;5.40;3.20;;;10.70;99.90;;;;;;5117070;28;20039;-89
2023/08/29 04:28:04;;;;;;;4.78;2.85;;;10.70;99.90;;;;;;5116088;28;20397;-88
2023/08/29 04:30:31;;;;;;;4.90;2.90;;;10.70;99.90;;;;;;5116124;28;20101;-89
2023/08/29 04:32:59;;;;;;;5.22;2.88;;;10.70;99.90;;;;;;5115816;28;20040;-88
2023/08/29 04:35:26;;;;;;;5.60;3.10;;;10.70;99.90;;;;;;5116357;28;20039;-88
2023/08/29 04:37:54;;;;;;;5.20;2.80;;;10.70;99.90;;;;;;5116028;28;20044;-88
2023/08/29 04:40:21;;;;;;;5.63;3.00;;;10.60;99.90;;;;;;5116406;28;20405;-89
2023/08/29 04:42:53;;;;;;;6.78;3.13;;;10.70;99.90;;;;;;5099885;28;20124;-89
2023/08/29 04:45:20;;;;;;;6.30;2.75;;;10.70;99.90;;;;;;5115917;28;20039;-89
2023/08/29 04:47:46;;;;;;;4.43;2.75;;;10.70;99.90;;;;;;5095862;28;20131;-89
2023/08/29 04:50:14;;;;;;;5.97;3.45;;;10.70;99.90;;;;;;5095360;28;20040;-87
2023/08/29 04:52:41;;;;;;;5.88;3.38;;;10.80;99.90;;;;;;5095519;28;20097;-88
2023/08/29 04:55:08;;;;;;;5.28;3.33;;;10.80;99.90;;;;;;5095522;28;20381;-89
2023/08/29 04:57:35;;;;;;;5.60;3.10;;;10.80;99.90;;;;;;5095476;28;20148;-88
2023/08/29 05:00:04;;;;;;;5.03;3.20;;;10.60;99.90;;;;;;5095525;28;20503;-89
2023/08/29 05:02:32;;;;;;;4.68;3.03;;;10.90;99.90;;;;;;5095474;28;20047;-89
2023/08/29 05:04:59;;;;;;;6.38;3.03;;;10.90;99.90;;;;;;5078446;28;20036;-88
2023/08/29 05:07:25;;;;;;;5.57;3.17;;;10.90;99.90;;;;;;5095274;28;20048;-89
2023/08/29 05:09:52;;;;;;;5.95;2.80;;;11.00;99.90;;;;;;5095362;28;20067;-89
2023/08/29 05:12:19;;;;;;;6.47;3.17;;;11.00;99.90;;;;;;5069430;28;20084;-89
2023/08/29 05:14:46;;;;;;;5.70;3.40;;;11.00;99.90;;;;;;5114605;28;20104;-89
2023/08/29 05:17:13;;;;;;;5.35;2.72;;;11.00;99.90;;;;;;5090115;28;20083;-89
2023/08/29 05:19:40;;;;;;;6.78;2.85;;;11.00;99.90;;;;;;5078245;28;20488;-89
2023/08/29 05:22:07;;;;;;;7.95;2.90;;;11.00;99.90;;;;;;5094710;28;20048;-89
2023/08/29 05:24:36;;;;;;;5.10;3.13;;;11.00;99.90;;;;;;5078909;28;20126;-89
2023/08/29 05:27:03;;;;;;;6.78;2.85;;;11.00;99.90;;;;;;5078585;28;20047;-88
2023/08/29 05:29:30;;;;;;;5.75;2.90;;;11.00;99.90;;;;;;5095055;28;20067;-88
2023/08/29 05:31:57;;;;;;;5.30;2.88;;;11.10;99.90;;;;;;5095113;28;20106;-89
2023/08/29 05:34:24;;;;;;;4.63;2.55;;;11.00;99.90;;;;;;5094480;28;20136;-89
2023/08/29 05:36:51;;;;;;;4.47;2.55;;;11.10;99.90;;;;;;5078362;28;20032;-88
2023/08/29 05:39:17;;;;;;;4.40;2.55;;;11.10;99.90;;;;;;5094671;28;20054;-89
2023/08/29 05:41:44;;;;;;;5.38;2.60;;;11.10;99.90;;;;;;5112661;28;20036;-89
2023/08/29 05:44:12;;;;;;;5.03;2.53;;;11.10;99.90;;;;;;5094270;28;20093;-88
2023/08/29 05:46:39;;;;;;;7.03;2.60;;;11.10;99.90;;;;;;5094916;28;20048;-89
2023/08/29 05:49:05;;;;;;;4.82;2.53;;;11.10;99.90;;;;;;5094267;28;20036;-89
2023/08/29 05:51:32;;;;;;;5.35;2.10;;;11.10;99.90;;;;;;5077812;28;20126;-89
2023/08/29 05:54:00;;;;;;;4.80;2.70;;;11.20;99.90;;;;;;5094438;28;20044;-89
2023/08/29 05:56:26;;;;;;;5.03;2.63;;;11.20;99.90;;;;;;5077654;28;20040;-89
2023/08/29 05:58:53;;;;;;;4.90;2.65;;;11.20;99.90;;;;;;5077995;28;20039;-89
2023/08/29 06:01:20;;;;;;;5.40;2.13;;;11.20;99.90;;;;;;5093970;28;20062;-88
2023/08/29 06:03:47;;;;;;;4.82;2.70;;;11.30;99.90;;;;;;5094568;28;20088;-89
2023/08/29 06:06:15;;;;;;;5.43;2.38;;;11.30;99.90;;;;;;5077219;28;20040;-88
2023/08/29 06:08:41;;;;;;;4.88;2.45;;;11.30;99.90;;;;;;5094727;28;20122;-89
2023/08/29 06:11:09;;;;;;;4.72;2.45;;;11.30;99.90;;;;;;5093343;28;20181;-89
2023/08/29 06:13:36;;;;;;;5.47;2.63;;;11.40;99.90;;;;;;5061309;28;20044;-88
2023/08/29 06:16:03;;;;;;;4.47;2.33;;;11.50;99.90;;;;;;5077510;28;20149;-89
2023/08/29 06:18:32;;;;;;;6.13;2.40;;;11.50;99.90;;;;;;5061055;28;20122;-89
2023/08/29 06:21:00;;;;;;;4.85;2.72;;;11.50;99.90;;;;;;5094606;28;20127;-90
2023/08/29 06:23:28;;;;;;;6.35;2.78;;;11.60;99.90;;;;;;5114505;28;20042;-89
2023/08/29 06:26:02;;;;;;;6.28;2.72;;;11.60;99.90;;;;;;5097647;28;20127;-90
2023/08/29 06:28:29;;;;;;;5.73;2.43;;;11.60;99.90;;;;;;5113680;28;20111;-90
2023/08/29 06:30:56;;;;;;;4.88;2.47;;;11.80;99.90;;;;;;5095270;28;20314;-91
2023/08/29 06:33:24;;;;;;;4.95;2.80;;;11.40;99.90;;;;;;5076996;28;20086;-92
2023/08/29 06:35:51;;;;;;;6.72;2.75;;;11.80;99.90;;;;;;5096163;28;20047;-91
2023/08/29 06:38:17;;;;;;;7.32;2.90;;;11.90;99.90;;;;;;5095487;28;20032;-91
2023/08/29 06:40:44;;;;;;;5.22;3.03;;;11.70;99.90;;;;;;5093967;28;20040;-91
2023/08/29 06:43:12;;;;;;;5.05;2.88;;;12.00;99.90;;;;;;5093750;28;20104;-90
2023/08/29 06:45:39;;;;;;;6.25;2.90;;;12.10;99.90;;;;;;5094205;28;20487;-90
2023/08/29 06:48:12;;;;;;;5.05;2.83;;;12.20;99.90;;;;;;5093708;28;20130;-90
2023/08/29 06:50:44;;;;;;;5.75;2.78;;;12.20;99.90;;;;;;5093846;28;20136;-91
2023/08/29 06:53:13;;;;;;;4.93;2.85;;;12.30;99.90;;;;;;5094244;28;20040;-90
2023/08/29 06:55:40;;;;;;;5.72;3.10;;;12.50;99.90;;;;;;5077578;28;20040;-90
2023/08/29 06:58:09;;;;;;;6.07;2.90;;;12.60;99.90;;;;;;5076932;28;20051;-90
2023/08/29 07:00:36;;;;;;;4.53;2.70;;;12.60;99.90;;;;;;5093194;28;20044;-90
2023/08/29 07:03:04;;;;;;;6.60;2.63;;;12.70;99.90;;;;;;5093943;28;20041;-90
2023/08/29 07:05:31;;;;;;;7.15;2.92;;;12.80;99.90;;;;;;5093710;28;20036;-89
2023/08/29 07:07:59;;;;;;;5.90;2.50;;;12.90;99.90;;;;;;5082755;28;20044;-89
2023/08/29 07:10:26;;;;;;;6.97;2.83;;;13.00;99.90;;;;;;5113300;28;20055;-91
2023/08/29 07:12:53;;;;;;;7.05;2.92;;;13.20;99.90;;;;;;5080923;28;20441;-91
2023/08/29 07:15:20;;;;;;;5.75;2.83;;;13.30;99.90;;;;;;5113505;28;20044;-90
2023/08/29 07:17:46;;;;;;;7.38;2.80;;;13.40;99.90;;;;;;5113609;28;20035;-90
2023/08/29 07:20:15;;;;;;;6.40;2.83;;;13.20;99.90;;;;;;5114033;28;20039;-90
2023/08/29 07:22:43;;;;;;;5.55;3.08;;;13.50;99.90;;;;;;5113793;28;20032;-89
2023/08/29 07:25:29;;;;;;;5.35;2.88;;;13.50;99.90;;;;;;5097404;28;20035;-91
2023/08/29 07:28:09;;;;;;;6.78;3.45;;;13.40;99.90;;;;;;5131230;28;20043;-91
2023/08/29 07:30:46;;;;;;;6.25;3.53;;;13.90;99.90;;;;;;5112943;28;20043;-90
2023/08/29 07:34:15;;;;;;;8.10;3.38;;;14.10;99.90;;;;;;5113681;28;20035;-91
2023/08/29 07:37:31;;;;;;;6.93;2.97;;;14.00;99.90;;;;;;5013105;28;20108;-91
2023/08/29 07:39:58;;;;;;;6.88;3.00;;;14.50;99.90;;;;;;5016397;28;20042;-90
2023/08/29 07:42:24;;;;;;;6.50;2.85;;;14.70;99.90;;;;;;5118601;28;20492;-91
2023/08/29 07:44:54;;;;;;;6.28;3.30;;;14.90;99.90;;;;;;5117136;28;20046;-90
2023/08/29 07:47:21;;;;;;;5.70;3.15;;;15.00;99.90;;;;;;5116581;28;20047;-90
2023/08/29 07:49:53;;;;;;;8.85;3.22;;;15.10;99.90;;;;;;5100825;28;20083;-91
2023/08/29 07:52:20;;;;;;;6.63;3.00;;;15.30;99.90;;;;;;5117654;28;20043;-84
2023/08/29 07:54:46;;;;;;;8.52;3.38;;;15.40;99.90;;;;;;5098054;28;20506;-84
2023/08/29 07:57:13;;;;;;;6.55;2.78;;;15.50;99.90;;;;;;5079006;28;20048;-86
2023/08/29 07:59:40;;;;;;;4.82;2.80;;;15.60;99.90;;;;;;5079282;28;20090;-84
2023/08/29 08:02:06;;;;;;;6.80;2.40;;;15.70;99.90;;;;;;5079738;28;20512;-87
2023/08/29 08:04:33;;;;;;;3.28;1.90;;;15.90;99.90;;;;;;5079578;28;20051;-87
2023/08/29 08:07:00;;;;;;;3.53;1.60;;;16.00;99.90;;;;;;5079416;28;20137;-86
2023/08/29 08:09:27;;;;;;;3.90;1.60;;;16.10;99.90;;;;;;5079120;28;20488;-86
2023/08/29 08:11:53;;;;;;;3.50;1.42;;;16.10;99.90;;;;;;5095599;28;20518;-86
2023/08/29 08:14:20;;;;;;;2.90;1.30;;;16.30;99.90;;;;;;5095652;28;20434;-86
2023/08/29 08:16:47;;;;;;;3.53;1.40;;;16.50;99.90;;;;;;5077268;28;20126;-86
2023/08/29 08:19:14;;;;;;;2.90;1.33;;;16.60;99.90;;;;;;5079031;28;20043;-86
2023/08/29 08:21:40;;;;;;;4.13;1.25;;;16.70;99.90;;;;;;5094829;28;20043;-87
2023/08/29 08:24:08;;;;;;;2.92;1.00;;;16.80;99.90;;;;;;5095043;28;20032;-87
2023/08/29 08:26:35;;;;;;;2.60;1.35;;;16.70;99.90;;;;;;5078124;28;20044;-86
2023/08/29 08:29:04;;;;;;;2.33;1.10;;;17.00;99.90;;;;;;5062097;28;20047;-86
2023/08/29 08:31:31;;;;;;;3.65;1.15;;;17.10;99.90;;;;;;5078339;28;20036;-86
2023/08/29 08:33:58;;;;;;;1.77;1.00;;;17.20;99.90;;;;;;5078458;28;20101;-86
2023/08/29 08:36:24;;;;;;;3.28;1.25;;;17.30;99.90;;;;;;5078083;28;20496;-86
2023/08/29 08:38:51;;;;;;;3.28;1.20;;;17.40;99.90;;;;;;5094335;28;20036;-86
2023/08/29 08:41:19;;;;;;;2.05;0.82;;;17.50;99.90;;;;;;5078727;28;20040;-86
2023/08/29 08:43:47;;;;;;;1.98;0.90;;;17.60;99.90;;;;;;5094804;28;20468;-86
2023/08/29 08:46:16;;;;;;;1.85;0.93;;;17.80;99.90;;;;;;5078911;28;20148;-86
2023/08/29 08:48:43;;;;;;;3.40;1.00;;;17.90;99.90;;;;;;5094985;28;20428;-87
2023/08/29 08:51:12;;;;;;;3.00;1.00;;;17.90;99.90;;;;;;5077411;28;20040;-87
2023/08/29 08:53:40;;;;;;;1.65;0.88;;;17.90;99.90;;;;;;5094608;28;20533;-87
2023/08/29 08:56:08;;;;;;;2.05;0.73;;;17.90;99.90;;;;;;5095022;28;20042;-87
2023/08/29 08:58:36;;;;;;;1.50;0.70;;;17.90;99.90;;;;;;5094509;28;20085;-87
2023/08/29 09:01:03;;;;;;;1.63;0.70;;;18.00;99.90;;;;;;5078730;28;20040;-87
2023/08/29 09:03:30;;;;;;;2.00;0.60;;;18.00;99.90;;;;;;5070646;28;20043;-87
2023/08/29 09:05:56;;;;;;;3.95;0.70;;;17.90;99.90;;;;;;5077283;28;20063;-87
2023/08/29 09:08:23;;;;;;;1.05;0.70;;;17.90;99.90;;;;;;5074756;28;20040;-87
2023/08/29 09:10:52;;;;;;;2.28;0.80;;;17.80;99.90;;;;;;5082506;28;20060;-87
2023/08/29 09:13:20;;;;;;;2.80;1.00;;;17.80;99.90;;;;;;5094259;28;20044;-87
2023/08/29 09:15:47;;;;;;;1.15;0.65;;;17.80;99.90;;;;;;5093674;28;20092;-87
2023/08/29 09:18:23;;;;;;;1.70;0.70;;;17.90;99.90;;;;;;5093906;28;20036;-87
2023/08/29 09:20:51;;;;;;;2.42;0.88;;;17.80;99.90;;;;;;5092073;28;20180;-87
2023/08/29 09:23:26;;;;;;;1.75;0.80;;;17.80;99.90;;;;;;5111589;28;20089;-87
2023/08/29 09:25:58;;;;;;;1.15;0.70;;;17.90;99.90;;;;;;5110711;28;20036;-86
2023/08/29 09:28:29;;;;;;;1.38;0.73;;;18.10;99.90;;;;;;5093743;28;20089;-87
2023/08/29 09:31:08;;;;;;;1.25;0.70;;;18.30;99.90;;;;;;5077447;28;20036;-89
2023/08/29 09:33:36;;;;;;;2.42;1.25;;;18.10;99.90;;;;;;5076970;28;20074;-88
2023/08/29 09:36:06;;;;;;;2.15;0.70;;;18.10;99.90;;;;;;5093697;28;20377;-85
2023/08/29 09:38:34;;;;;;;3.17;0.70;;;18.10;99.90;;;;;;5094804;28;20564;-86
2023/08/29 09:41:01;;;;;;;1.70;0.60;;;17.90;99.90;;;;;;5077158;28;20035;-86
2023/08/29 09:43:30;;;;;;;1.85;0.73;;;17.90;99.90;;;;;;5078115;28;20120;-86
2023/08/29 09:45:58;;;;;;;1.70;0.80;;;17.70;99.90;;;;;;5056529;28;20070;-86
2023/08/29 09:48:24;;;;;;;2.95;0.77;;;17.50;99.90;;;;;;5085975;28;20051;-85
2023/08/29 09:50:51;;;;;;;1.77;0.73;;;17.50;99.90;;;;;;5077121;28;20039;-86
2023/08/29 09:53:19;;;;;;;1.77;0.70;;;17.50;99.90;;;;;;5076804;28;20047;-86
2023/08/29 09:56:10;;;;;;;2.22;0.80;;;17.40;99.90;;;;;;5092814;28;20039;-87
2023/08/29 09:58:40;;;;;;;2.08;0.70;;;17.60;99.90;;;;;;5093061;28;20047;-85
2023/08/29 10:01:09;;;;;;;1.17;0.70;;;17.90;99.90;;;;;;5059803;28;20044;-87
2023/08/29 10:03:38;;;;;;;1.05;0.60;;;18.20;99.90;;;;;;5076123;28;20048;-86
2023/08/29 10:06:07;;;;;;;1.95;0.80;;;18.40;99.90;;;;;;5076745;28;20047;-86
2023/08/29 10:08:46;;;;;;;1.65;0.80;;;18.70;99.90;;;;;;5076297;28;20101;-86
2023/08/29 10:11:12;;;;;;;2.03;0.65;;;18.80;99.90;;;;;;5093002;28;20195;-86
2023/08/29 10:13:41;;;;;;;1.20;0.73;;;18.80;99.90;;;;;;5075916;28;20048;-85
2023/08/29 10:16:09;;;;;;;1.30;0.68;;;18.90;99.90;;;;;;5059888;28;20123;-86
2023/08/29 10:18:36;;;;;;;0.98;0.60;;;19.00;99.90;;;;;;5109175;28;20040;-85
2023/08/29 10:21:04;;;;;;;1.67;0.70;;;19.10;99.90;;;;;;5093234;28;20036;-85
2023/08/29 10:23:31;;;;;;;1.33;0.47;;;19.30;99.90;;;;;;5092548;28;20122;-86
2023/08/29 10:26:00;;;;;;;1.20;0.70;;;19.40;99.90;;;;;;5076580;28;20123;-87
2023/08/29 10:28:29;;;;;;;2.85;0.60;;;19.50;99.90;;;;;;5092677;28;20036;-87
2023/08/29 10:31:00;;;;;;;1.83;0.60;;;19.60;99.90;;;;;;5092544;28;20126;-87
2023/08/29 10:33:27;;;;;;;0.90;0.60;;;19.80;99.90;;;;;;5073437;28;20041;-88
2023/08/29 10:35:54;;;;;;;1.42;0.60;;;19.80;99.90;;;;;;5056359;28;20044;-87
2023/08/29 10:38:21;;;;;;;0.82;0.50;;;19.70;99.90;;;;;;5056593;28;20029;-88
2023/08/29 10:40:59;;;;;;;3.30;0.70;;;19.60;99.90;;;;;;5080857;28;20093;-87
2023/08/29 10:43:26;;;;;;;1.38;0.65;;;19.50;99.90;;;;;;5077997;28;20047;-88
2023/08/29 10:45:57;;;;;;;1.27;0.70;;;19.50;99.90;;;;;;5075570;28;20059;-87
2023/08/29 10:48:30;;;;;;;2.88;0.60;;;19.40;99.90;;;;;;5093344;28;20044;-88
2023/08/29 10:51:18;;;;;;;1.40;0.70;;;19.40;99.90;;;;;;5092610;28;20039;-86
2023/08/29 10:53:56;;;;;;;0.95;0.70;;;19.50;99.90;;;;;;5092042;28;20482;-87
2023/08/29 10:56:27;;;;;;;1.08;0.70;;;19.50;99.90;;;;;;5109567;28;20101;-88
2023/08/29 10:58:54;;;;;;;1.55;0.80;;;19.60;99.90;;;;;;5109133;28;20441;-86
2023/08/29 11:01:24;;;;;;;3.38;0.90;;;19.60;99.90;;;;;;5076695;28;20565;-87
2023/08/29 11:03:51;;;;;;;4.00;0.93;;;19.60;99.90;;;;;;5092552;28;20067;-87
2023/08/29 11:06:19;;;;;;;1.10;0.70;;;19.50;99.90;;;;;;5076218;28;20047;-87
2023/08/29 11:08:46;;;;;;;1.70;0.80;;;19.60;99.90;;;;;;5092187;28;20047;-88
2023/08/29 11:11:14;;;;;;;1.98;0.88;;;19.70;99.90;;;;;;5075670;28;20056;-87
2023/08/29 11:14:01;;;;;;;2.63;0.90;;;19.70;99.90;;;;;;5124500;28;20119;-86
2023/08/29 11:16:29;;;;;;;4.03;0.90;;;19.80;99.90;;;;;;5108365;28;20028;-88
2023/08/29 11:19:12;;;;;;;1.33;0.60;;;19.90;99.90;;;;;;5096626;28;20048;-87
2023/08/29 11:21:42;;;;;;;1.73;0.90;;;20.00;99.90;;;;;;5112989;28;20075;-88
2023/08/29 11:24:12;;;;;;;2.70;1.08;;;19.90;99.90;;;;;;5098325;28;20116;-88
2023/08/29 11:26:40;;;;;;;3.03;1.00;;;19.70;99.90;;;;;;5081374;28;20036;-88
2023/08/29 11:29:07;;;;;;;2.55;1.17;;;19.70;99.90;;;;;;5080165;28;20043;-87
2023/08/29 11:31:48;;;;;;;1.35;0.82;;;19.70;99.90;;;;;;5096168;28;20036;-88
2023/08/29 11:34:20;;;;;;;1.80;0.90;;;19.90;99.90;;;;;;5097013;28;20036;-88
2023/08/29 11:36:53;;;;;;;1.35;0.80;;;19.90;99.90;;;;;;5080459;28;20032;-88
2023/08/29 11:39:21;;;;;;;1.25;0.60;;;19.90;99.90;;;;;;5080623;28;20086;-89
2023/08/29 11:41:48;;;;;;;1.95;0.80;;;19.90;99.90;;;;;;5079788;28;20032;-88
2023/08/29 11:44:16;;;;;;;1.65;0.90;;;19.80;99.90;;;;;;5096653;28;20036;-88
2023/08/29 11:46:43;;;;;;;1.52;0.80;;;19.60;99.90;;;;;;5113877;28;20047;-88
2023/08/29 11:49:14;;;;;;;1.70;0.80;;;19.60;99.90;;;;;;5096048;28;20105;-88
2023/08/29 11:51:41;;;;;;;2.92;0.77;;;19.60;99.90;;;;;;5064571;28;20079;-88
2023/08/29 11:54:37;;;;;;;1.30;0.70;;;19.70;99.90;;;;;;5113450;28;20044;-88
2023/08/29 11:57:06;;;;;;;1.35;0.75;;;19.70;99.90;;;;;;5112731;28;20047;-88
2023/08/29 11:59:34;;;;;;;3.00;0.80;;;19.80;99.90;;;;;;5096722;28;20492;-88
2023/08/29 12:02:01;;;;;;;1.85;0.80;;;20.00;99.90;;;;;;5096602;28;20051;-88
2023/08/29 12:04:28;;;;;;;1.17;0.73;;;20.10;99.90;;;;;;5080220;28;20039;-89
2023/08/29 12:07:11;;;;;;;2.25;0.90;;;20.00;99.90;;;;;;5079824;28;20397;-89
2023/08/29 12:09:41;;;;;;;3.15;0.90;;;20.10;99.90;;;;;;5079640;28;20051;-88
2023/08/29 12:12:09;;;;;;;1.45;0.85;;;20.10;99.90;;;;;;5064033;28;20036;-89
2023/08/29 12:14:51;;;;;;;2.35;0.88;;;20.10;99.90;;;;;;5096401;28;20043;-89
2023/08/29 12:17:19;;;;;;;3.10;0.90;;;20.10;99.90;;;;;;5112881;28;20046;-88
2023/08/29 12:19:49;;;;;;;2.00;0.90;;;20.10;99.90;;;;;;5116816;28;20036;-88
2023/08/29 12:22:19;;;;;;;2.55;0.90;;;20.10;99.90;;;;;;5099547;28;20560;-88
2023/08/29 12:24:54;;;;;;;1.67;0.93;;;20.10;99.90;;;;;;5083747;28;20067;-88
2023/08/29 12:27:21;;;;;;;2.13;1.00;;;20.20;99.90;;;;;;5083590;28;20050;-89
2023/08/29 12:29:48;;;;;;;2.55;0.90;;;20.30;99.90;;;;;;5133171;28;20039;-89
2023/08/29 12:32:16;;;;;;;1.63;0.90;;;20.20;99.90;;;;;;5099421;28;20050;-88
2023/08/29 12:34:44;;;;;;;2.10;1.10;;;20.30;99.90;;;;;;5099795;28;20096;-88
2023/08/29 12:37:14;;;;;;;3.63;0.93;;;20.30;99.90;;;;;;5098738;28;20032;-88
2023/08/29 12:39:40;;;;;;;2.80;0.88;;;20.30;99.90;;;;;;5083290;28;20499;-88
2023/08/29 12:42:07;;;;;;;3.08;1.08;;;20.30;99.90;;;;;;5115715;28;20038;-88
2023/08/29 12:44:34;;;;;;;1.52;0.70;;;20.50;99.90;;;;;;5115964;28;20044;-88
2023/08/29 12:47:01;;;;;;;2.53;0.93;;;20.40;99.90;;;;;;5098274;28;20050;-88
2023/08/29 12:49:28;;;;;;;2.50;1.00;;;20.40;99.90;;;;;;5100778;28;20063;-88
2023/08/29 12:51:54;;;;;;;2.08;0.90;;;20.50;99.90;;;;;;5099216;28;20085;-88
2023/08/29 12:54:21;;;;;;;3.33;1.10;;;20.40;99.90;;;;;;5078138;28;20425;-88
2023/08/29 12:56:48;;;;;;;1.98;0.82;;;20.50;99.90;;;;;;5120084;28;20038;-88